Time;durP1;ratioP1;P1;durP2;ratioP2;P2;SDS_P1;SDS_P2;PMS_P1;PMS_P2;Temp;Humidity;BMP_temperature;BMP_pressure;BME280_temperature;BME280_humidity;BME280_pressure;Samples;Min_cycle;Max_cycle;Signal;HPM_P1;HPM_P2
2022/03/20 00:01:35;;;;;;;;;;;;;;;9.35;23.19;101880.38;4486280;31;34352;-63
2022/03/20 00:04:03;;;;;;;;;;;;;;;9.03;24.57;101881.50;4481554;31;33974;-62
2022/03/20 00:06:31;;;;;;;;;;;;;;;9.16;22.79;101884.63;4482463;31;33586;-63
2022/03/20 00:09:00;;;;;;;;;;;;;;;8.55;24.74;101869.75;4489053;31;34477;-64
2022/03/20 00:11:28;;;;;;;;;;;;;;;9.00;22.00;101877.13;4489076;31;33261;-65
2022/03/20 00:13:55;;;;;;;;;;;;;;;8.70;22.15;101875.50;4490095;31;33335;-65
2022/03/20 00:16:23;;;;;;;;;;;;;;;7.71;23.68;101880.31;4486632;31;34180;-63
2022/03/20 00:18:52;;;;;;;;;;;;;;;7.67;24.72;101874.19;4487527;31;34174;-63
2022/03/20 00:21:19;;;;;;;;;;;;;;;7.41;24.67;101874.03;4486897;31;33532;-63
2022/03/20 00:23:47;;;;;;;;;;;;;;;7.75;25.15;101871.28;4486954;31;35380;-63
2022/03/20 00:26:21;;;;;;;;;;;;;;;7.42;24.17;101870.47;4491336;31;34059;-63
2022/03/20 00:28:48;;;;;;;;;;;;;;;7.50;23.97;101871.13;4488857;31;34375;-64
2022/03/20 00:31:16;;;;;;;;;;;;;;;7.39;25.81;101870.56;4490153;31;33115;-63
2022/03/20 00:33:44;;;;;;;;;;;;;;;7.32;27.62;101866.28;4490418;31;34184;-64
2022/03/20 00:36:11;;;;;;;;;;;;;;;7.23;26.99;101867.44;4488333;31;33270;-63
2022/03/20 00:38:39;;;;;;;;;;;;;;;6.35;24.86;101862.56;4484843;31;35139;-63
2022/03/20 00:41:06;;;;;;;;;;;;;;;6.70;26.27;101867.91;4489615;31;33319;-64
2022/03/20 00:43:36;;;;;;;;;;;;;;;6.62;26.15;101864.56;4491229;31;35234;-64
2022/03/20 00:46:04;;;;;;;;;;;;;;;6.35;25.66;101868.75;4485068;31;34119;-64
2022/03/20 00:48:31;;;;;;;;;;;;;;;6.68;24.85;101867.09;4486336;31;34020;-63
2022/03/20 00:51:03;;;;;;;;;;;;;;;6.41;25.56;101875.72;4485669;31;32474;-64
2022/03/20 00:53:36;;;;;;;;;;;;;;;6.39;26.27;101877.53;4489353;31;34249;-64
2022/03/20 00:56:04;;;;;;;;;;;;;;;6.64;24.85;101865.38;4488860;31;35180;-63
2022/03/20 00:58:31;;;;;;;;;;;;;;;5.83;26.10;101870.75;4489426;31;33140;-64
2022/03/20 01:00:59;;;;;;;;;;;;;;;5.84;28.49;101871.63;4483638;31;33736;-64
2022/03/20 01:03:27;;;;;;;;;;;;;;;6.10;28.20;101876.44;4484478;31;34117;-63
2022/03/20 01:05:55;;;;;;;;;;;;;;;6.38;27.34;101870.47;4489987;31;33165;-63
2022/03/20 01:08:24;;;;;;;;;;;;;;;6.61;25.97;101861.94;4490666;31;33027;-62
2022/03/20 01:10:51;;;;;;;;;;;;;;;6.81;26.02;101857.00;4485893;31;32050;-64
2022/03/20 01:13:19;;;;;;;;;;;;;;;6.62;25.70;101850.41;4492936;31;34355;-63
2022/03/20 01:15:47;;;;;;;;;;;;;;;6.60;26.98;101855.75;4489182;31;34530;-63
2022/03/20 01:18:15;;;;;;;;;;;;;;;6.92;27.71;101857.59;4488225;31;32935;-63
2022/03/20 01:20:42;;;;;;;;;;;;;;;6.68;26.95;101856.44;4490650;31;32299;-63
2022/03/20 01:23:10;;;;;;;;;;;;;;;6.68;27.90;101863.56;4487174;31;34241;-65
2022/03/20 01:25:38;;;;;;;;;;;;;;;7.22;26.06;101855.00;4487019;31;33829;-63
2022/03/20 01:28:06;;;;;;;;;;;;;;;7.52;25.81;101863.97;4487697;31;33455;-63
2022/03/20 01:30:33;;;;;;;;;;;;;;;7.49;25.75;101865.84;4485351;31;33468;-66
2022/03/20 01:33:02;;;;;;;;;;;;;;;7.85;26.01;101871.91;4487926;31;35170;-63
2022/03/20 01:35:30;;;;;;;;;;;;;;;7.36;25.75;101868.84;4484409;31;35457;-64
2022/03/20 01:37:58;;;;;;;;;;;;;;;7.35;26.19;101872.44;4490589;31;32961;-63
2022/03/20 01:40:26;;;;;;;;;;;;;;;6.72;27.62;101875.88;4488775;31;33517;-65
2022/03/20 01:42:53;;;;;;;;;;;;;;;6.74;26.55;101874.91;4487442;31;34099;-63
2022/03/20 01:45:22;;;;;;;;;;;;;;;6.54;27.33;101888.69;4484901;31;34274;-65
2022/03/20 01:47:50;;;;;;;;;;;;;;;6.14;27.10;101885.22;4489377;31;34421;-64
2022/03/20 01:50:19;;;;;;;;;;;;;;;5.93;28.38;101894.53;4488568;31;33454;-64
2022/03/20 01:52:48;;;;;;;;;;;;;;;5.83;28.76;101896.47;4486038;31;34859;-65
2022/03/20 01:55:16;;;;;;;;;;;;;;;6.21;28.11;101893.00;4483532;31;34318;-64
2022/03/20 01:57:46;;;;;;;;;;;;;;;5.80;27.90;101897.41;4484431;31;34054;-64
2022/03/20 02:00:15;;;;;;;;;;;;;;;5.37;27.91;101903.56;4487091;31;33313;-64
2022/03/20 02:02:44;;;;;;;;;;;;;;;5.57;27.89;101905.84;4487396;31;33961;-65
2022/03/20 02:05:12;;;;;;;;;;;;;;;5.30;29.27;101909.91;4487229;31;34173;-64
2022/03/20 02:07:40;;;;;;;;;;;;;;;5.76;28.35;101906.34;4483744;31;34259;-65
2022/03/20 02:10:08;;;;;;;;;;;;;;;5.76;29.06;101908.13;4484960;31;33227;-65
2022/03/20 02:12:36;;;;;;;;;;;;;;;5.44;28.97;101909.66;4488246;31;34043;-64
2022/03/20 02:15:05;;;;;;;;;;;;;;;5.89;28.69;101914.06;4486391;31;34404;-63
2022/03/20 02:17:34;;;;;;;;;;;;;;;5.16;28.56;101908.41;4490228;31;33319;-63
2022/03/20 02:20:03;;;;;;;;;;;;;;;5.68;28.02;101912.72;4487906;31;32311;-63
2022/03/20 02:22:32;;;;;;;;;;;;;;;5.60;28.45;101915.53;4488532;31;32819;-63
2022/03/20 02:25:04;;;;;;;;;;;;;;;5.79;28.12;101914.25;4488946;31;33043;-64
2022/03/20 02:27:34;;;;;;;;;;;;;;;5.53;29.01;101914.78;4485531;31;34953;-67
2022/03/20 02:30:03;;;;;;;;;;;;;;;5.55;29.63;101920.06;4491011;31;33397;-66
2022/03/20 02:32:32;;;;;;;;;;;;;;;5.65;29.32;101915.44;4487985;31;33428;-66
2022/03/20 02:35:02;;;;;;;;;;;;;;;5.13;29.49;101906.66;4484667;31;34191;-66
2022/03/20 02:37:30;;;;;;;;;;;;;;;5.22;30.53;101916.25;4490799;31;35434;-65
2022/03/20 02:39:59;;;;;;;;;;;;;;;5.70;30.77;101909.13;4486533;31;32766;-65
2022/03/20 02:42:28;;;;;;;;;;;;;;;4.98;30.50;101915.78;4491610;31;33087;-65
2022/03/20 02:45:03;;;;;;;;;;;;;;;5.15;29.84;101920.81;4485898;31;34224;-66
2022/03/20 02:47:35;;;;;;;;;;;;;;;5.31;30.54;101916.09;4492775;31;34109;-66
2022/03/20 02:50:04;;;;;;;;;;;;;;;5.50;30.49;101909.53;4488191;31;33258;-66
2022/03/20 02:52:46;;;;;;;;;;;;;;;5.60;29.29;101928.81;4485918;31;32923;-65
2022/03/20 02:55:15;;;;;;;;;;;;;;;5.66;29.51;101917.22;4485341;31;34440;-64
2022/03/20 02:57:44;;;;;;;;;;;;;;;5.30;30.35;101927.63;4483485;31;32992;-64
2022/03/20 03:00:11;;;;;;;;;;;;;;;5.18;32.53;101927.84;4482989;31;33230;-65
2022/03/20 03:02:43;;;;;;;;;;;;;;;5.35;29.60;101939.91;4484984;31;34842;-66
2022/03/20 03:05:14;;;;;;;;;;;;;;;5.14;29.55;101935.84;4485830;31;32975;-67
2022/03/20 03:13:17;;;;;;;;;;;;;;;5.68;28.85;101947.25;4482164;31;33854;-74
2022/03/20 03:15:45;;;;;;;;;;;;;;;5.91;29.66;101949.47;4482345;31;34183;-68
2022/03/20 03:18:14;;;;;;;;;;;;;;;5.60;30.14;101958.03;4485714;31;35756;-66
2022/03/20 03:20:42;;;;;;;;;;;;;;;4.36;31.05;101949.44;4483787;31;33145;-66
2022/03/20 03:23:11;;;;;;;;;;;;;;;5.99;30.41;101950.22;4481931;31;33865;-65
2022/03/20 03:25:40;;;;;;;;;;;;;;;6.05;29.67;101958.06;4482133;31;33490;-67
2022/03/20 03:28:09;;;;;;;;;;;;;;;4.95;31.03;101971.56;4483915;31;32893;-66
2022/03/20 03:30:43;;;;;;;;;;;;;;;5.64;31.51;101970.34;4483436;31;32699;-65
2022/03/20 03:33:12;;;;;;;;;;;;;;;5.65;31.23;101976.53;4483696;31;34249;-65
2022/03/20 03:35:51;;;;;;;;;;;;;;;6.31;28.90;101978.78;4487911;31;34402;-64
2022/03/20 03:38:21;;;;;;;;;;;;;;;5.72;29.39;101988.84;4472565;31;32668;-65
2022/03/20 03:40:50;;;;;;;;;;;;;;;5.93;30.84;101984.91;4485621;31;32174;-64
2022/03/20 03:43:18;;;;;;;;;;;;;;;5.65;30.85;101985.41;4483938;31;34054;-65
2022/03/20 03:45:46;;;;;;;;;;;;;;;5.59;29.61;101986.41;4483767;31;33426;-66
2022/03/20 03:48:19;;;;;;;;;;;;;;;5.00;30.89;101995.38;4481423;31;34410;-65
2022/03/20 03:50:50;;;;;;;;;;;;;;;5.40;31.30;101992.94;4486477;31;34505;-65
2022/03/20 03:53:19;;;;;;;;;;;;;;;5.96;30.01;102001.66;4483749;31;33778;-64
2022/03/20 03:55:47;;;;;;;;;;;;;;;5.83;29.95;102005.44;4480992;31;35340;-65
2022/03/20 03:58:15;;;;;;;;;;;;;;;5.35;30.69;102000.09;4482835;31;33874;-65
2022/03/20 04:00:44;;;;;;;;;;;;;;;5.94;29.67;102014.13;4483926;31;36150;-65
2022/03/20 04:03:13;;;;;;;;;;;;;;;5.37;30.24;102016.91;4481987;31;34202;-65
2022/03/20 04:05:42;;;;;;;;;;;;;;;5.69;30.87;102013.66;4483038;31;33734;-65
2022/03/20 04:08:10;;;;;;;;;;;;;;;4.97;31.71;102016.66;4488619;31;34076;-65
2022/03/20 04:10:39;;;;;;;;;;;;;;;5.22;32.64;102015.38;4491912;31;34249;-65
2022/03/20 04:13:08;;;;;;;;;;;;;;;5.61;30.67;102023.53;4482489;31;34888;-65
2022/03/20 04:15:38;;;;;;;;;;;;;;;5.09;30.86;102021.78;4491299;31;34664;-66
2022/03/20 04:18:08;;;;;;;;;;;;;;;3.87;34.17;102032.22;4486721;31;33672;-64
2022/03/20 04:20:37;;;;;;;;;;;;;;;5.81;31.67;102031.16;4485646;31;32092;-66
2022/03/20 04:25:54;;;;;;;;;;;;;;;5.51;31.23;102035.25;4485137;31;33955;-65
2022/03/20 04:28:22;;;;;;;;;;;;;;;6.34;30.25;102026.59;4481904;31;36065;-65
2022/03/20 04:30:52;;;;;;;;;;;;;;;5.72;30.61;102042.84;4488041;31;34350;-65
2022/03/20 04:33:21;;;;;;;;;;;;;;;6.59;29.75;102037.59;4483796;31;34330;-65
2022/03/20 04:35:50;;;;;;;;;;;;;;;6.48;30.58;102044.91;4469794;32;32684;-65
2022/03/20 04:38:21;;;;;;;;;;;;;;;5.84;32.08;102053.25;4470661;31;34149;-67
2022/03/20 04:40:50;;;;;;;;;;;;;;;6.33;30.26;102059.44;4482629;31;33144;-63
2022/03/20 04:43:18;;;;;;;;;;;;;;;6.64;29.74;102059.66;4485272;31;33684;-63
2022/03/20 04:45:47;;;;;;;;;;;;;;;6.45;30.80;102058.28;4487580;31;34667;-63
2022/03/20 04:59:23;;;;;;;;;;;;;;;6.78;29.92;102067.34;4482199;31;33972;-65
2022/03/20 05:01:57;;;;;;;;;;;;;;;7.20;29.64;102083.25;4481768;31;34381;-65
2022/03/20 05:04:26;;;;;;;;;;;;;;;7.27;29.18;102084.88;4482369;31;34217;-65
2022/03/20 05:06:55;;;;;;;;;;;;;;;7.13;29.47;102074.53;4483084;31;35599;-66
2022/03/20 05:14:58;;;;;;;;;;;;;;;5.33;31.18;102079.81;4481220;31;35438;-66
2022/03/20 05:17:28;;;;;;;;;;;;;;;4.73;33.84;102089.53;4482189;31;33083;-66
2022/03/20 05:19:56;;;;;;;;;;;;;;;5.25;32.54;102089.66;4485040;31;34231;-66
2022/03/20 05:22:27;;;;;;;;;;;;;;;6.59;30.32;102090.81;4489384;31;33553;-67
2022/03/20 05:25:10;;;;;;;;;;;;;;;6.88;30.06;102097.31;4483942;31;32819;-66
2022/03/20 05:27:39;;;;;;;;;;;;;;;6.78;29.82;102103.75;4482205;31;35366;-67
2022/03/20 05:30:09;;;;;;;;;;;;;;;5.65;30.96;102104.06;4492155;31;32918;-66
2022/03/20 05:32:40;;;;;;;;;;;;;;;6.89;29.84;102107.91;4489853;31;32100;-66
2022/03/20 05:35:09;;;;;;;;;;;;;;;6.26;30.30;102122.53;4484196;31;32793;-66
2022/03/20 05:37:38;;;;;;;;;;;;;;;6.99;30.76;102113.91;4484377;31;34131;-66
2022/03/20 05:40:08;;;;;;;;;;;;;;;7.02;31.17;102115.63;4485632;31;33087;-66
2022/03/20 05:42:38;;;;;;;;;;;;;;;7.31;29.48;102110.50;4482732;31;32351;-65
2022/03/20 05:45:11;;;;;;;;;;;;;;;6.91;29.17;102122.06;4487016;31;33000;-66
2022/03/20 05:47:41;;;;;;;;;;;;;;;7.04;29.47;102122.69;4482831;31;34045;-66
2022/03/20 05:50:10;;;;;;;;;;;;;;;7.47;28.94;102119.88;4485935;31;33453;-66
2022/03/20 05:52:41;;;;;;;;;;;;;;;7.99;28.49;102117.69;4483173;31;33255;-65
2022/03/20 05:55:12;;;;;;;;;;;;;;;8.05;28.39;102128.22;4485955;31;34354;-66
2022/03/20 05:58:04;;;;;;;;;;;;;;;8.34;28.58;102127.41;4487198;31;33499;-66
2022/03/20 06:00:34;;;;;;;;;;;;;;;8.59;28.15;102134.78;4481878;31;34406;-66
2022/03/20 06:03:04;;;;;;;;;;;;;;;8.36;28.19;102128.25;4486684;31;34386;-67
2022/03/20 06:05:33;;;;;;;;;;;;;;;8.69;27.35;102128.25;4483946;31;34315;-65
2022/03/20 06:08:04;;;;;;;;;;;;;;;7.69;29.37;102133.56;4484092;31;33437;-65
2022/03/20 06:10:38;;;;;;;;;;;;;;;8.16;28.66;102128.81;4486048;31;33085;-66
2022/03/20 06:13:08;;;;;;;;;;;;;;;8.34;27.47;102142.56;4486376;31;32552;-66
2022/03/20 06:15:38;;;;;;;;;;;;;;;8.56;27.68;102148.22;4481312;31;33172;-65
2022/03/20 06:18:07;;;;;;;;;;;;;;;8.38;28.73;102152.28;4482970;31;34276;-65
2022/03/20 06:20:36;;;;;;;;;;;;;;;8.15;29.63;102158.19;4481008;31;34163;-65
2022/03/20 06:23:06;;;;;;;;;;;;;;;8.23;28.08;102155.31;4482416;31;32575;-65
2022/03/20 06:25:37;;;;;;;;;;;;;;;7.55;28.69;102167.69;4480816;31;34768;-65
2022/03/20 06:28:05;;;;;;;;;;;;;;;8.04;28.79;102166.47;4487022;31;35431;-65
2022/03/20 06:30:35;;;;;;;;;;;;;;;8.08;29.52;102168.13;4484939;31;33511;-65
2022/03/20 06:33:07;;;;;;;;;;;;;;;8.52;29.38;102163.44;4488455;31;33637;-66
2022/03/20 06:35:37;;;;;;;;;;;;;;;8.74;27.54;102168.19;4483385;31;33730;-66
2022/03/20 06:38:07;;;;;;;;;;;;;;;9.13;27.26;102173.28;4485688;31;34528;-67
2022/03/20 06:40:37;;;;;;;;;;;;;;;8.80;28.53;102176.91;4482960;31;33798;-67
2022/03/20 06:43:09;;;;;;;;;;;;;;;9.18;27.15;102171.31;4486022;31;33459;-66
2022/03/20 06:45:38;;;;;;;;;;;;;;;7.69;27.78;102194.88;4480808;31;31861;-67
2022/03/20 06:48:10;;;;;;;;;;;;;;;7.79;27.46;102189.34;4483488;31;34191;-67
2022/03/20 06:50:50;;;;;;;;;;;;;;;7.43;28.09;102186.63;4483886;31;32610;-67
2022/03/20 06:53:21;;;;;;;;;;;;;;;8.14;27.84;102183.97;4489186;31;31350;-67
2022/03/20 06:56:05;;;;;;;;;;;;;;;8.13;28.56;102184.91;4487330;31;34555;-67
2022/03/20 06:58:45;;;;;;;;;;;;;;;7.22;28.48;102202.19;4482286;31;33247;-66
2022/03/20 07:01:15;;;;;;;;;;;;;;;7.30;29.11;102201.12;4481701;31;33368;-67
2022/03/20 07:03:45;;;;;;;;;;;;;;;7.90;28.93;102195.28;4490511;31;34303;-67
2022/03/20 07:06:16;;;;;;;;;;;;;;;7.41;29.36;102202.63;4490223;31;34249;-64
2022/03/20 07:08:53;;;;;;;;;;;;;;;7.03;28.40;102203.50;4488893;31;33805;-64
2022/03/20 07:11:32;;;;;;;;;;;;;;;7.23;28.95;102209.25;4482433;31;32705;-64
2022/03/20 07:14:06;;;;;;;;;;;;;;;8.15;27.93;102207.09;4482559;31;34250;-63
2022/03/20 07:16:43;;;;;;;;;;;;;;;7.56;28.09;102212.06;4485998;31;32751;-65
2022/03/20 07:19:21;;;;;;;;;;;;;;;7.94;28.11;102220.97;4483301;31;35136;-64
2022/03/20 07:21:55;;;;;;;;;;;;;;;7.37;28.27;102219.59;4476024;32;34035;-65
2022/03/20 07:24:29;;;;;;;;;;;;;;;8.38;31.76;102227.00;4485718;31;33425;-64
2022/03/20 07:29:49;;;;;;;;;;;;;;;9.07;27.04;102223.28;4470742;31;33056;-64
2022/03/20 07:32:18;;;;;;;;;;;;;;;9.64;26.22;102229.59;4488416;31;32513;-64
2022/03/20 07:34:47;;;;;;;;;;;;;;;8.43;27.47;102233.09;4484585;31;34439;-64
2022/03/20 07:37:21;;;;;;;;;;;;;;;9.22;26.32;102232.66;4489573;31;34145;-65
2022/03/20 07:39:51;;;;;;;;;;;;;;;9.06;27.79;102226.91;4483533;31;32945;-66
2022/03/20 07:42:23;;;;;;;;;;;;;;;9.30;26.03;102227.94;4422106;31;2021243;-65
2022/03/20 07:44:52;;;;;;;;;;;;;;;8.63;26.71;102233.44;4490198;31;34327;-65
2022/03/20 07:47:24;;;;;;;;;;;;;;;9.72;25.44;102224.88;4486139;31;33922;-65
2022/03/20 07:49:56;;;;;;;;;;;;;;;10.60;25.96;102213.97;4489016;31;35549;-65
2022/03/20 07:52:27;;;;;;;;;;;;;;;10.88;24.18;102229.87;4487495;31;33209;-65
2022/03/20 07:54:59;;;;;;;;;;;;;;;10.74;25.15;102219.69;4483720;31;34777;-65
2022/03/20 07:57:31;;;;;;;;;;;;;;;10.69;23.76;102229.69;4462041;31;34225;-65
2022/03/20 08:00:03;;;;;;;;;;;;;;;11.62;22.52;102225.28;4489114;31;35973;-65
2022/03/20 08:02:41;;;;;;;;;;;;;;;11.10;23.11;102228.16;4486183;31;35023;-66
2022/03/20 08:05:14;;;;;;;;;;;;;;;11.17;22.47;102224.34;4484347;31;34462;-65
2022/03/20 08:07:45;;;;;;;;;;;;;;;11.52;22.37;102223.88;4487202;31;33126;-65
2022/03/20 08:10:24;;;;;;;;;;;;;;;13.75;20.21;102224.00;4484911;31;35242;-65
2022/03/20 08:13:00;;;;;;;;;;;;;;;12.22;21.41;102225.56;4486428;31;33247;-65
2022/03/20 08:15:30;;;;;;;;;;;;;;;13.57;20.39;102228.44;4483740;31;33028;-65
2022/03/20 08:18:06;;;;;;;;;;;;;;;12.32;21.73;102229.59;4492496;31;33501;-65
2022/03/20 08:20:37;;;;;;;;;;;;;;;11.40;22.32;102228.81;4492059;31;34054;-66
2022/03/20 08:23:10;;;;;;;;;;;;;;;11.89;21.75;102226.03;4485510;31;32936;-66
2022/03/20 08:25:42;;;;;;;;;;;;;;;11.54;22.32;102225.59;4487881;31;31139;-65
2022/03/20 08:28:19;;;;;;;;;;;;;;;13.14;21.26;102224.19;4487482;31;33965;-65
2022/03/20 08:30:54;;;;;;;;;;;;;;;12.96;21.52;102221.38;4482068;31;32921;-65
2022/03/20 08:33:25;;;;;;;;;;;;;;;13.45;21.42;102215.56;4483311;31;34220;-65
2022/03/20 08:36:00;;;;;;;;;;;;;;;11.53;21.69;102220.28;4488690;31;33258;-65
2022/03/20 08:38:30;;;;;;;;;;;;;;;10.88;22.45;102225.44;4476394;31;33750;-65
2022/03/20 08:41:00;;;;;;;;;;;;;;;10.92;22.92;102212.78;4485731;31;36289;-65
2022/03/20 08:43:31;;;;;;;;;;;;;;;10.57;23.64;102224.78;4489991;31;34155;-65
2022/03/20 08:46:06;;;;;;;;;;;;;;;10.68;23.15;102222.56;4481108;31;33447;-65
2022/03/20 08:48:38;;;;;;;;;;;;;;;10.62;23.38;102220.97;4489514;31;32972;-65
2022/03/20 08:51:15;;;;;;;;;;;;;;;9.65;24.11;102225.12;4488528;31;34468;-65
2022/03/20 08:53:48;;;;;;;;;;;;;;;9.47;24.27;102216.78;4490407;31;33557;-66
2022/03/20 08:56:20;;;;;;;;;;;;;;;10.25;23.34;102229.41;4483771;31;33124;-65
2022/03/20 08:58:52;;;;;;;;;;;;;;;10.01;23.75;102215.91;4471216;31;34065;-66
2022/03/20 09:01:30;;;;;;;;;;;;;;;10.13;23.07;102219.97;4481840;31;35887;-65
2022/03/20 09:04:00;;;;;;;;;;;;;;;9.06;25.08;102229.56;4483727;31;33262;-65
2022/03/20 09:06:33;;;;;;;;;;;;;;;9.70;23.68;102220.53;4489574;31;31999;-65
2022/03/20 09:09:06;;;;;;;;;;;;;;;8.92;24.14;102221.06;4481712;31;32748;-65
2022/03/20 09:11:36;;;;;;;;;;;;;;;9.19;24.65;102221.19;4485438;31;34516;-65
2022/03/20 09:14:09;;;;;;;;;;;;;;;8.92;24.93;102217.50;4487458;31;33269;-64
2022/03/20 09:19:30;;;;;;;;;;;;;;;10.09;23.16;102214.78;4472500;31;32991;-66
2022/03/20 09:22:02;;;;;;;;;;;;;;;10.14;23.33;102210.13;4486335;31;34366;-65
2022/03/20 09:24:33;;;;;;;;;;;;;;;10.91;23.14;102205.66;4487793;31;33042;-65
2022/03/20 09:27:08;;;;;;;;;;;;;;;10.50;23.56;102205.38;4492511;31;33266;-65
2022/03/20 09:29:47;;;;;;;;;;;;;;;10.11;23.69;102203.13;4488622;31;34577;-65
2022/03/20 09:32:20;;;;;;;;;;;;;;;10.92;22.67;102196.72;4487871;31;34071;-66
2022/03/20 09:34:52;;;;;;;;;;;;;;;10.85;22.89;102196.06;4477512;31;33602;-65
2022/03/20 09:37:26;;;;;;;;;;;;;;;10.34;23.13;102191.66;4482572;31;33659;-64
2022/03/20 09:39:55;;;;;;;;;;;;;;;9.26;24.00;102196.03;4485990;31;33938;-63
2022/03/20 09:42:30;;;;;;;;;;;;;;;9.12;24.53;102195.56;4493601;31;32922;-64
2022/03/20 09:45:08;;;;;;;;;;;;;;;10.34;23.54;102194.34;4486073;31;34057;-65
2022/03/20 09:47:39;;;;;;;;;;;;;;;9.80;22.97;102187.19;4484694;31;33218;-65
2022/03/20 09:50:16;;;;;;;;;;;;;;;11.01;22.56;102192.78;4492237;31;35333;-65
2022/03/20 09:52:53;;;;;;;;;;;;;;;10.12;23.68;102201.31;4488578;31;34475;-65
2022/03/20 09:55:21;;;;;;;;;;;;;;;10.39;22.64;102207.53;4487011;31;33916;-65
2022/03/20 09:57:57;;;;;;;;;;;;;;;10.55;22.53;102198.03;4486253;31;33110;-65
2022/03/20 10:00:32;;;;;;;;;;;;;;;11.04;21.99;102198.03;4487987;31;33901;-65
2022/03/20 10:03:19;;;;;;;;;;;;;;;11.12;21.86;102191.47;4471446;31;34110;-65
2022/03/20 10:06:06;;;;;;;;;;;;;;;10.95;21.44;102200.16;4474176;32;34058;-64
2022/03/20 10:08:36;;;;;;;;;;;;;;;11.81;21.36;102182.47;4483753;31;33035;-65
2022/03/20 10:11:12;;;;;;;;;;;;;;;10.71;21.94;102182.28;4473036;31;34053;-64
2022/03/20 10:14:05;;;;;;;;;;;;;;;11.59;21.68;102180.69;4490357;31;34100;-65
2022/03/20 10:16:59;;;;;;;;;;;;;;;11.57;21.50;102176.31;4484286;31;33952;-65
2022/03/20 10:19:34;;;;;;;;;;;;;;;11.65;21.16;102179.53;4489540;31;33356;-65
2022/03/20 10:22:11;;;;;;;;;;;;;;;12.16;20.57;102172.97;4485155;31;32931;-65
2022/03/20 10:24:55;;;;;;;;;;;;;;;12.62;20.63;102170.97;4486518;31;33145;-65
2022/03/20 10:27:27;;;;;;;;;;;;;;;12.23;21.17;102173.59;4484385;31;33865;-65
2022/03/20 10:30:01;;;;;;;;;;;;;;;11.44;21.47;102173.25;4483872;31;33214;-65
2022/03/20 10:32:30;;;;;;;;;;;;;;;11.22;21.89;102173.22;4489225;31;33016;-65
2022/03/20 10:35:06;;;;;;;;;;;;;;;11.39;22.36;102176.09;4471762;32;35207;-64
2022/03/20 10:37:51;;;;;;;;;;;;;;;12.57;21.17;102167.62;4490279;31;34611;-64
2022/03/20 10:40:26;;;;;;;;;;;;;;;11.41;21.26;102179.59;4484609;31;34316;-64
2022/03/20 10:43:12;;;;;;;;;;;;;;;11.27;21.69;102167.66;4484532;31;34161;-65
2022/03/20 10:45:50;;;;;;;;;;;;;;;12.35;21.00;102167.69;4484042;31;33001;-65
2022/03/20 10:48:35;;;;;;;;;;;;;;;12.46;20.81;102167.25;4489980;31;35180;-65
2022/03/20 10:51:06;;;;;;;;;;;;;;;11.99;20.93;102156.72;4482917;31;31919;-65
2022/03/20 10:53:37;;;;;;;;;;;;;;;11.63;21.47;102157.28;4484253;31;35441;-65
2022/03/20 10:56:08;;;;;;;;;;;;;;;12.24;21.08;102157.44;4470799;31;32972;-64
2022/03/20 10:58:39;;;;;;;;;;;;;;;10.87;22.28;102162.03;4488120;31;35225;-64
2022/03/20 11:01:12;;;;;;;;;;;;;;;10.61;21.97;102148.75;4488068;31;34244;-64
2022/03/20 11:03:43;;;;;;;;;;;;;;;12.01;21.22;102145.00;4474667;31;34849;-65
2022/03/20 11:06:15;;;;;;;;;;;;;;;12.36;20.63;102139.91;4476890;31;33155;-64
2022/03/20 11:08:44;;;;;;;;;;;;;;;12.00;20.69;102131.63;4487008;31;33578;-65
2022/03/20 11:11:13;;;;;;;;;;;;;;;10.67;21.54;102144.03;4484370;31;33331;-64
2022/03/20 11:13:48;;;;;;;;;;;;;;;11.44;21.36;102135.72;4485346;31;34206;-64
2022/03/20 11:16:20;;;;;;;;;;;;;;;12.00;21.15;102132.50;4475215;31;34288;-65
2022/03/20 11:18:52;;;;;;;;;;;;;;;11.85;20.64;102128.66;4480961;31;33000;-65
2022/03/20 11:21:25;;;;;;;;;;;;;;;11.79;20.47;102118.16;4475656;31;33582;-65
2022/03/20 11:23:58;;;;;;;;;;;;;;;12.11;21.03;102115.94;4492202;31;33867;-66
2022/03/20 11:26:32;;;;;;;;;;;;;;;12.11;21.40;102130.22;4485386;31;34180;-65
2022/03/20 11:29:03;;;;;;;;;;;;;;;12.55;20.73;102116.66;4497053;31;32754;-65
2022/03/20 11:31:36;;;;;;;;;;;;;;;12.20;20.24;102115.53;4473014;31;34024;-64
2022/03/20 11:34:12;;;;;;;;;;;;;;;12.21;20.73;102111.03;4473528;31;34154;-65
2022/03/20 11:37:02;;;;;;;;;;;;;;;12.14;21.03;102101.53;4488673;31;33105;-65
2022/03/20 11:39:33;;;;;;;;;;;;;;;12.10;20.94;102101.66;4483047;31;34318;-64
2022/03/20 11:42:22;;;;;;;;;;;;;;;12.29;21.72;102090.09;4486340;31;34265;-65
2022/03/20 11:45:02;;;;;;;;;;;;;;;12.74;20.55;102086.22;4485681;31;33631;-64
2022/03/20 11:47:37;;;;;;;;;;;;;;;12.73;19.77;102088.06;4484861;31;33681;-65
2022/03/20 11:50:08;;;;;;;;;;;;;;;11.99;19.69;102076.22;4479460;31;33904;-64
2022/03/20 11:52:44;;;;;;;;;;;;;;;12.30;20.29;102073.06;4485083;31;32958;-65
2022/03/20 11:55:24;;;;;;;;;;;;;;;12.03;20.32;102067.06;4487802;31;34775;-65
2022/03/20 11:57:54;;;;;;;;;;;;;;;12.39;19.66;102063.69;4483043;31;34076;-65
2022/03/20 12:00:24;;;;;;;;;;;;;;;11.11;21.57;102077.16;4468930;31;33754;-63
2022/03/20 12:03:10;;;;;;;;;;;;;;;11.64;20.55;102065.16;4482755;31;35037;-63
2022/03/20 12:05:39;;;;;;;;;;;;;;;11.06;22.02;102067.53;4487095;31;33714;-65
2022/03/20 12:08:17;;;;;;;;;;;;;;;12.28;19.69;102056.13;4487126;31;33901;-64
2022/03/20 12:11:01;;;;;;;;;;;;;;;11.65;19.63;102057.06;4474874;31;33523;-65
2022/03/20 12:13:49;;;;;;;;;;;;;;;11.28;19.90;102052.34;4482629;31;33300;-64
2022/03/20 12:16:56;;;;;;;;;;;;;;;12.46;19.76;102055.28;4483222;31;33218;-64
2022/03/20 12:19:41;;;;;;;;;;;;;;;12.47;20.31;102053.47;4474924;31;34446;-64
2022/03/20 12:22:18;;;;;;;;;;;;;;;12.77;19.97;102043.97;4483143;31;32975;-64
2022/03/20 12:25:04;;;;;;;;;;;;;;;11.75;20.51;102054.84;4487516;31;33396;-65
2022/03/20 12:27:36;;;;;;;;;;;;;;;12.10;19.50;102053.34;4486102;31;32709;-65
2022/03/20 12:30:17;;;;;;;;;;;;;;;12.74;19.86;102046.78;4481885;31;33390;-64
2022/03/20 12:32:52;;;;;;;;;;;;;;;11.11;20.14;102057.53;4483218;31;33599;-65
2022/03/20 12:35:29;;;;;;;;;;;;;;;12.83;18.92;102045.50;4482642;31;33096;-64
2022/03/20 12:38:01;;;;;;;;;;;;;;;12.69;18.14;102043.47;4484129;31;33789;-65
2022/03/20 12:40:34;;;;;;;;;;;;;;;11.63;19.12;102034.78;4472312;31;34150;-66
2022/03/20 12:43:23;;;;;;;;;;;;;;;11.77;19.91;102034.16;4472696;31;33477;-65
2022/03/20 12:45:55;;;;;;;;;;;;;;;12.22;18.93;102035.78;4486082;31;32426;-64
2022/03/20 12:48:30;;;;;;;;;;;;;;;10.87;20.24;102038.78;4489823;31;34182;-64
2022/03/20 12:51:02;;;;;;;;;;;;;;;10.77;20.45;102033.87;4489706;31;33438;-65
2022/03/20 12:53:45;;;;;;;;;;;;;;;10.59;20.59;102030.94;4468155;32;34976;-67
2022/03/20 12:58:56;;;;;;;;;;;;;;;11.28;20.30;102030.91;4495816;31;32713;-65
2022/03/20 13:01:37;;;;;;;;;;;;;;;10.10;21.12;102042.59;4485431;31;34300;-65
2022/03/20 13:04:21;;;;;;;;;;;;;;;10.78;20.72;102022.22;4481551;31;34236;-67
2022/03/20 13:06:54;;;;;;;;;;;;;;;11.23;20.14;102013.25;4491778;31;33649;-65
2022/03/20 13:09:25;;;;;;;;;;;;;;;10.80;20.24;102013.19;4483699;31;34144;-66
2022/03/20 13:11:58;;;;;;;;;;;;;;;10.92;21.52;102009.16;4486330;31;34105;-65
2022/03/20 13:14:26;;;;;;;;;;;;;;;11.64;20.00;102009.69;4486897;31;32804;-65
2022/03/20 13:16:58;;;;;;;;;;;;;;;10.92;20.41;102006.47;4474331;31;32247;-65
2022/03/20 13:19:35;;;;;;;;;;;;;;;11.59;19.96;101998.31;4476476;31;34197;-66
2022/03/20 13:22:07;;;;;;;;;;;;;;;11.59;19.31;102005.47;4484998;31;34402;-65
2022/03/20 13:24:46;;;;;;;;;;;;;;;11.43;20.33;102000.75;4484251;31;34123;-64
2022/03/20 13:27:14;;;;;;;;;;;;;;;11.52;19.50;102001.28;4483885;31;33635;-65
2022/03/20 13:29:51;;;;;;;;;;;;;;;12.08;19.28;102000.66;4484878;31;34495;-65
2022/03/20 13:32:21;;;;;;;;;;;;;;;11.86;19.66;101995.38;4482674;31;35178;-65
2022/03/20 13:34:48;;;;;;;;;;;;;;;10.98;20.80;101994.62;4488822;31;35152;-63
2022/03/20 13:37:21;;;;;;;;;;;;;;;11.97;19.08;101992.19;4492829;31;33065;-64
2022/03/20 13:39:55;;;;;;;;;;;;;;;11.61;19.76;101985.66;4485125;31;34987;-64
2022/03/20 13:42:24;;;;;;;;;;;;;;;11.73;19.27;101983.41;4493936;31;34354;-65